createdAt,value
2017-07-26T00:01:18.111Z,2.80
2017-07-26T00:06:21.300Z,2.10
2017-07-26T00:11:25.394Z,2.40
2017-07-26T00:16:28.592Z,2.60
2017-07-26T00:21:31.787Z,3.03
2017-07-26T00:26:35.756Z,3.10
2017-07-26T00:31:38.953Z,2.97
2017-07-26T00:36:42.143Z,2.93
2017-07-26T00:41:46.089Z,2.80
2017-07-26T00:46:49.257Z,3.73
2017-07-26T00:51:53.215Z,3.23
2017-07-26T00:56:56.388Z,3.43
2017-07-26T01:02:00.385Z,3.50
2017-07-26T01:07:03.634Z,4.00
2017-07-26T01:12:07.562Z,4.80
2017-07-26T01:17:10.768Z,4.10
2017-07-26T01:22:13.964Z,4.00
2017-07-26T01:27:17.944Z,3.80
2017-07-26T01:32:21.095Z,4.80
2017-07-26T01:37:24.294Z,3.43
2017-07-26T01:42:27.473Z,4.13
2017-07-26T01:47:30.666Z,4.10
2017-07-26T01:52:33.934Z,4.93
2017-07-26T01:57:37.891Z,5.27
2017-07-26T02:02:41.086Z,5.47
2017-07-26T02:07:44.252Z,5.83
2017-07-26T02:12:48.201Z,6.53
2017-07-26T02:17:51.404Z,6.70
2017-07-26T02:22:55.370Z,6.20
2017-07-26T02:27:58.541Z,7.00
2017-07-26T02:33:01.813Z,6.60
2017-07-26T02:38:04.980Z,7.50
2017-07-26T02:43:08.160Z,7.33
2017-07-26T02:48:11.988Z,8.40
2017-07-26T02:53:15.169Z,8.03
2017-07-26T02:58:19.105Z,9.10
2017-07-26T03:03:22.294Z,9.00
2017-07-26T03:08:25.482Z,10.87
2017-07-26T03:13:28.672Z,10.73
2017-07-26T03:18:31.881Z,10.50
2017-07-26T03:23:35.057Z,10.60
2017-07-26T03:28:38.256Z,11.27
2017-07-26T03:33:41.469Z,10.20
2017-07-26T03:38:44.674Z,10.77
2017-07-26T03:43:47.865Z,10.83
2017-07-26T03:48:51.038Z,11.90
2017-07-26T03:53:54.244Z,10.40
2017-07-26T03:58:57.743Z,10.63
2017-07-26T04:04:00.962Z,12.30
2017-07-26T04:09:04.150Z,11.70
2017-07-26T04:14:07.341Z,12.50
2017-07-26T04:19:10.534Z,11.83
2017-07-26T04:24:13.733Z,13.70
2017-07-26T04:29:16.921Z,12.57
2017-07-26T04:34:20.888Z,13.20
2017-07-26T04:39:24.088Z,12.63
2017-07-26T04:44:27.321Z,14.57
2017-07-26T04:49:30.513Z,15.37
2017-07-26T04:54:33.693Z,16.00
2017-07-26T04:59:36.876Z,16.30
2017-07-26T05:04:40.831Z,17.20
2017-07-26T05:09:43.997Z,17.07
2017-07-26T05:14:47.942Z,17.67
2017-07-26T05:19:51.129Z,17.13
2017-07-26T05:24:54.356Z,17.57
2017-07-26T05:29:57.533Z,18.53
2017-07-26T05:35:00.718Z,17.93
2017-07-26T05:40:03.950Z,19.10
2017-07-26T05:45:07.216Z,20.23
2017-07-26T05:50:10.394Z,18.20
2017-07-26T05:55:13.737Z,20.07
2017-07-26T06:00:16.966Z,19.50
2017-07-26T06:05:20.189Z,19.17
2017-07-26T06:10:23.365Z,19.10
2017-07-26T06:15:26.571Z,19.37
2017-07-26T06:20:29.749Z,19.13
2017-07-26T06:25:32.982Z,16.87
2017-07-26T06:30:36.141Z,18.87
2017-07-26T06:35:40.105Z,18.97
2017-07-26T06:40:43.301Z,19.63
2017-07-26T06:45:46.514Z,18.73
2017-07-26T06:50:49.700Z,18.40
2017-07-26T06:55:53.645Z,13.10
2017-07-26T07:00:56.892Z,7.63
2017-07-26T07:06:00.079Z,5.40
2017-07-26T07:11:03.275Z,4.53
2017-07-26T07:16:06.454Z,4.30
2017-07-26T07:21:09.678Z,3.30
2017-07-26T07:26:12.841Z,3.60
2017-07-26T07:31:16.790Z,4.00
2017-07-26T07:36:19.949Z,4.13
2017-07-26T07:41:23.141Z,5.50
2017-07-26T07:46:26.321Z,6.50
2017-07-26T07:51:29.545Z,7.33
2017-07-26T07:56:32.760Z,8.67
2017-07-26T08:01:35.938Z,8.50
2017-07-26T08:06:39.154Z,9.93
2017-07-26T08:11:42.331Z,9.90
2017-07-26T08:16:46.336Z,11.30
2017-07-26T08:21:49.541Z,12.00
2017-07-26T08:26:52.705Z,12.13
2017-07-26T08:31:55.916Z,12.10
2017-07-26T08:36:59.132Z,12.90
2017-07-26T08:42:02.321Z,13.00
2017-07-26T08:47:05.532Z,13.70
2017-07-26T08:52:08.725Z,14.63
2017-07-26T08:57:11.903Z,13.70
2017-07-26T09:02:15.098Z,12.83
2017-07-26T09:07:18.293Z,13.40
2017-07-26T09:12:21.497Z,13.50
2017-07-26T09:17:24.678Z,13.03
2017-07-26T09:22:27.906Z,12.40
2017-07-26T09:27:31.125Z,12.83
2017-07-26T09:32:34.332Z,12.27
2017-07-26T09:37:37.558Z,13.60
2017-07-26T09:42:40.733Z,13.73
2017-07-26T09:47:43.929Z,12.80
2017-07-26T09:52:47.106Z,13.17
2017-07-26T09:57:50.308Z,13.23
2017-07-26T10:02:53.501Z,12.50
2017-07-26T10:07:56.687Z,12.47
2017-07-26T10:12:59.914Z,12.10
2017-07-26T10:18:03.869Z,12.27
2017-07-26T10:23:07.162Z,11.00
2017-07-26T10:28:10.355Z,11.00
2017-07-26T10:33:14.900Z,11.07
2017-07-26T10:38:18.861Z,11.83
2017-07-26T10:43:22.058Z,10.90
2017-07-26T10:48:25.272Z,10.73
2017-07-26T10:53:28.459Z,12.27
2017-07-26T10:58:31.635Z,10.97
2017-07-26T11:03:35.598Z,10.33
2017-07-26T11:08:38.789Z,9.93
2017-07-26T11:13:41.980Z,10.33
2017-07-26T11:18:45.173Z,10.97
2017-07-26T11:23:49.124Z,10.60
2017-07-26T11:28:52.296Z,10.33
2017-07-26T11:33:55.498Z,10.53
2017-07-26T11:38:58.682Z,10.47
2017-07-26T11:44:01.878Z,10.93
2017-07-26T11:49:05.054Z,9.77
2017-07-26T11:54:08.238Z,8.70
2017-07-26T11:59:12.191Z,8.30
2017-07-26T12:04:15.365Z,8.30
2017-07-26T12:09:18.558Z,6.63
2017-07-26T12:14:21.732Z,6.80
2017-07-26T12:19:24.917Z,6.60
2017-07-26T12:24:28.121Z,6.20
2017-07-26T12:29:31.322Z,6.70
2017-07-26T12:34:34.511Z,6.17
2017-07-26T12:39:37.669Z,5.10
2017-07-26T12:44:40.829Z,5.10
2017-07-26T12:49:44.866Z,4.30
2017-07-26T12:54:48.301Z,4.40
2017-07-26T12:59:51.551Z,4.30
2017-07-26T13:04:54.781Z,4.70
2017-07-26T13:09:57.903Z,4.13
2017-07-26T13:15:01.098Z,4.70
2017-07-26T13:20:05.070Z,4.90
2017-07-26T13:25:08.285Z,6.47
2017-07-26T13:30:11.466Z,7.80
2017-07-26T13:35:14.635Z,9.80
2017-07-26T13:40:18.604Z,10.13
2017-07-26T13:45:21.819Z,10.37
2017-07-26T13:50:25.014Z,10.27
2017-07-26T13:55:28.191Z,10.93
2017-07-26T14:00:32.162Z,9.60
2017-07-26T14:05:35.349Z,8.97
2017-07-26T14:10:38.542Z,8.97
2017-07-26T14:15:41.728Z,8.50
2017-07-26T14:20:45.688Z,8.97
2017-07-26T14:25:48.890Z,9.40
2017-07-26T14:30:52.230Z,10.90
2017-07-26T14:35:55.435Z,10.50
2017-07-26T14:40:58.617Z,10.30
2017-07-26T14:46:01.821Z,10.87
2017-07-26T14:51:05.022Z,9.30
2017-07-26T14:56:08.205Z,10.10
2017-07-26T15:01:12.153Z,7.80
2017-07-26T15:06:15.337Z,7.33
2017-07-26T15:11:19.325Z,7.97
2017-07-26T15:16:22.552Z,13.90
2017-07-26T15:21:25.765Z,15.33
2017-07-26T15:26:28.986Z,9.80
2017-07-26T15:31:32.958Z,7.03
2017-07-26T15:36:36.148Z,6.50
2017-07-26T15:41:39.392Z,6.40
2017-07-26T15:46:42.578Z,6.80
2017-07-26T15:51:45.773Z,6.30
2017-07-26T15:56:48.994Z,7.03
2017-07-26T16:01:52.179Z,6.80
2017-07-26T16:06:55.504Z,7.20
2017-07-26T16:11:58.697Z,8.10
2017-07-26T16:17:02.037Z,7.37
2017-07-26T16:22:05.319Z,8.50
2017-07-26T16:27:08.517Z,6.90
2017-07-26T16:32:11.724Z,7.30
2017-07-26T16:37:15.135Z,6.40
2017-07-26T16:42:18.370Z,7.10
2017-07-26T16:47:21.578Z,7.00
2017-07-26T16:52:24.753Z,6.43
2017-07-26T16:57:27.937Z,6.60
2017-07-26T17:02:31.860Z,5.70
2017-07-26T17:07:35.213Z,10.10
2017-07-26T17:12:38.413Z,6.47
2017-07-26T17:17:42.603Z,5.10
2017-07-26T17:22:46.551Z,5.23
2017-07-26T17:27:49.726Z,6.50
2017-07-26T17:32:53.715Z,6.03
2017-07-26T17:37:56.952Z,7.40
2017-07-26T17:43:00.157Z,7.00
2017-07-26T17:48:04.127Z,8.97
2017-07-26T17:53:07.343Z,5.60
2017-07-26T17:58:10.538Z,5.53
2017-07-26T18:03:13.786Z,6.13
2017-07-26T18:08:17.001Z,6.80
2017-07-26T18:13:20.200Z,8.43
2017-07-26T18:18:23.435Z,6.20
2017-07-26T18:23:26.773Z,6.40
2017-07-26T18:28:29.960Z,6.90
2017-07-26T18:33:33.159Z,6.80
2017-07-26T18:38:37.280Z,8.87
2017-07-26T18:43:41.248Z,9.83
2017-07-26T18:48:44.453Z,9.63
2017-07-26T18:53:47.693Z,8.13
2017-07-26T18:58:50.919Z,7.40
2017-07-26T19:03:54.104Z,6.30
2017-07-26T19:08:57.279Z,6.90
2017-07-26T19:14:00.489Z,6.53
2017-07-26T19:19:03.718Z,7.53
2017-07-26T19:24:06.953Z,7.27
2017-07-26T19:29:10.113Z,7.20
2017-07-26T19:34:13.321Z,18.13
2017-07-26T19:39:16.558Z,7.53
2017-07-26T19:44:19.751Z,8.17
2017-07-26T19:49:22.984Z,8.00
2017-07-26T19:54:26.201Z,7.33
2017-07-26T19:59:29.423Z,8.10
2017-07-26T20:04:33.387Z,8.00
2017-07-26T20:09:36.593Z,7.70
2017-07-26T20:14:39.798Z,7.20
2017-07-26T20:19:43.010Z,7.67
2017-07-26T20:24:46.213Z,6.37
2017-07-26T20:29:49.492Z,7.27
2017-07-26T20:34:53.454Z,7.77
2017-07-26T20:39:56.730Z,7.80
2017-07-26T20:44:59.922Z,7.90
2017-07-26T20:50:03.917Z,11.13
2017-07-26T20:55:07.141Z,9.10
2017-07-26T21:00:10.324Z,7.93
2017-07-26T21:05:13.535Z,9.43
2017-07-26T21:10:16.722Z,8.80
2017-07-26T21:15:19.945Z,10.93
2017-07-26T21:20:23.136Z,8.17
2017-07-26T21:25:26.291Z,8.93
2017-07-26T21:30:30.288Z,10.17
2017-07-26T21:35:33.522Z,9.47
2017-07-26T21:40:36.713Z,9.90
2017-07-26T21:45:39.921Z,9.93
2017-07-26T21:50:43.118Z,9.30
2017-07-26T21:55:46.297Z,9.60
2017-07-26T22:00:49.509Z,8.30
2017-07-26T22:05:52.726Z,8.10
2017-07-26T22:10:55.925Z,9.10
2017-07-26T22:15:59.138Z,9.90
2017-07-26T22:21:02.338Z,8.53
2017-07-26T22:26:05.649Z,9.80
2017-07-26T22:31:08.862Z,9.07
2017-07-26T22:36:12.303Z,8.97
2017-07-26T22:41:15.501Z,9.73
2017-07-26T22:46:18.681Z,9.27
2017-07-26T22:51:21.903Z,8.60
2017-07-26T22:56:25.064Z,9.10
2017-07-26T23:01:28.273Z,10.77
2017-07-26T23:06:31.437Z,9.83
2017-07-26T23:11:34.632Z,9.10
2017-07-26T23:16:37.840Z,9.80
2017-07-26T23:21:41.025Z,10.90
2017-07-26T23:26:44.217Z,9.20
2017-07-26T23:31:47.408Z,10.13
2017-07-26T23:36:50.549Z,9.73
2017-07-26T23:41:53.765Z,7.73
2017-07-26T23:46:56.957Z,9.17
2017-07-26T23:52:00.155Z,9.07
2017-07-26T23:57:03.343Z,8.63
